createdAt,value
2022-08-26T00:02:19.288Z,29.71
2022-08-26T00:04:50.098Z,29.87
2022-08-26T00:07:19.258Z,29.92
2022-08-26T00:09:48.154Z,30.54
2022-08-26T00:12:18.260Z,30.49
2022-08-26T00:14:47.138Z,30.57
2022-08-26T00:17:16.261Z,30.26
2022-08-26T00:19:44.169Z,30.14
2022-08-26T00:25:24.573Z,30.48
2022-08-26T00:27:53.781Z,29.46
2022-08-26T00:30:28.203Z,29.86
2022-08-26T00:32:58.033Z,29.42
2022-08-26T00:35:27.883Z,30.51
2022-08-26T00:37:57.535Z,29.58
2022-08-26T00:40:34.988Z,30.21
2022-08-26T00:43:07.123Z,30.27
2022-08-26T00:45:46.045Z,29.65
2022-08-26T00:48:18.810Z,30.86
2022-08-26T00:51:12.404Z,29.92
2022-08-26T00:53:50.969Z,30.43
2022-08-26T00:56:32.596Z,30.18
2022-08-26T00:59:05.371Z,31.04
2022-08-26T01:01:34.345Z,30.24
2022-08-26T01:04:03.362Z,30.82
2022-08-26T01:06:34.283Z,30.37
2022-08-26T01:09:05.165Z,30.34
2022-08-26T01:11:36.803Z,31.33
2022-08-26T01:14:07.040Z,29.92
2022-08-26T01:16:37.382Z,30.62
2022-08-26T01:19:38.931Z,30.19
2022-08-26T01:25:05.376Z,30.62
2022-08-26T01:27:36.340Z,31.08
2022-08-26T01:30:06.454Z,30.49
2022-08-26T01:32:36.511Z,30.75
2022-08-26T01:35:08.452Z,31.50
2022-08-26T01:37:40.454Z,30.22
2022-08-26T01:40:15.215Z,31.48
2022-08-26T01:42:47.535Z,31.32
2022-08-26T01:45:25.552Z,30.16
2022-08-26T01:47:58.520Z,31.41
2022-08-26T01:50:33.589Z,30.40
2022-08-26T01:53:07.935Z,30.97
2022-08-26T01:55:41.907Z,30.73
2022-08-26T01:58:18.871Z,31.38
2022-08-26T02:00:48.646Z,31.25
2022-08-26T02:03:22.450Z,30.17
2022-08-26T02:05:56.262Z,30.97
2022-08-26T02:08:49.712Z,30.52
2022-08-26T02:11:19.601Z,31.18
2022-08-26T02:14:16.456Z,30.73
2022-08-26T02:16:49.209Z,31.43
2022-08-26T02:19:22.493Z,31.29
2022-08-26T02:21:53.866Z,31.24
2022-08-26T02:24:29.020Z,30.98
2022-08-26T02:26:58.629Z,31.04
2022-08-26T02:29:35.403Z,30.98
2022-08-26T02:32:08.469Z,31.34
2022-08-26T02:34:39.048Z,30.95
2022-08-26T02:37:10.811Z,31.69
2022-08-26T02:39:43.032Z,31.41
2022-08-26T02:42:12.429Z,31.08
2022-08-26T02:44:40.989Z,31.83
2022-08-26T02:47:10.261Z,31.97
2022-08-26T02:49:40.487Z,31.96
2022-08-26T02:52:15.703Z,32.17
2022-08-26T02:54:44.254Z,31.71
2022-08-26T02:57:15.526Z,31.73
2022-08-26T02:59:45.067Z,32.16
2022-08-26T03:02:14.354Z,31.88
2022-08-26T03:04:57.707Z,31.55
2022-08-26T03:07:30.852Z,31.72
2022-08-26T03:09:59.602Z,31.46
2022-08-26T03:12:29.305Z,32.12
2022-08-26T03:15:00.996Z,31.82
2022-08-26T03:17:30.249Z,32.24
2022-08-26T03:19:59.092Z,31.82
2022-08-26T03:22:28.255Z,31.90
2022-08-26T03:24:56.963Z,32.14
2022-08-26T03:27:26.248Z,32.82
2022-08-26T03:30:16.617Z,32.53
2022-08-26T03:32:44.918Z,32.06
2022-08-26T03:35:14.864Z,32.97
2022-08-26T03:37:43.808Z,32.91
2022-08-26T03:40:13.318Z,33.12
2022-08-26T03:42:45.339Z,32.67
2022-08-26T03:45:15.995Z,32.71
2022-08-26T03:47:44.902Z,33.02
2022-08-26T03:50:17.995Z,33.05
2022-08-26T03:52:53.145Z,32.86
2022-08-26T03:55:27.320Z,33.07
2022-08-26T03:57:56.060Z,33.12
2022-08-26T04:00:25.151Z,33.20
2022-08-26T04:02:56.439Z,33.05
2022-08-26T04:05:25.633Z,33.35
2022-08-26T04:07:56.113Z,32.22
2022-08-26T04:10:28.939Z,33.25
2022-08-26T04:12:59.295Z,32.84
2022-08-26T04:15:28.728Z,32.68
2022-08-26T04:17:57.318Z,33.57
2022-08-26T04:20:29.202Z,33.01
2022-08-26T04:22:57.918Z,33.19
2022-08-26T04:25:26.025Z,33.18
2022-08-26T04:27:55.178Z,33.44
2022-08-26T04:30:24.344Z,33.13
2022-08-26T04:32:53.927Z,33.18
2022-08-26T04:35:26.012Z,33.41
2022-08-26T04:37:55.593Z,33.26
2022-08-26T04:40:24.643Z,32.56
2022-08-26T04:42:55.214Z,33.72
2022-08-26T04:45:24.827Z,33.08
2022-08-26T04:47:56.539Z,33.00
2022-08-26T04:50:26.558Z,33.36
2022-08-26T04:52:55.836Z,33.92
2022-08-26T04:55:39.679Z,33.40
2022-08-26T04:58:15.660Z,33.07
2022-08-26T05:00:46.143Z,33.64
2022-08-26T05:03:17.125Z,33.78
2022-08-26T05:05:47.808Z,33.69
2022-08-26T05:08:19.099Z,33.47
2022-08-26T05:10:56.553Z,33.89
2022-08-26T05:13:27.651Z,33.87
2022-08-26T05:16:04.508Z,33.40
2022-08-26T05:18:35.785Z,34.03
2022-08-26T05:21:05.847Z,33.62
2022-08-26T05:30:24.736Z,34.33
2022-08-26T05:32:55.363Z,33.99
2022-08-26T05:35:24.107Z,33.97
2022-08-26T05:37:56.731Z,34.04
2022-08-26T05:40:26.307Z,34.12
2022-08-26T05:42:57.006Z,34.43
2022-08-26T05:45:27.778Z,34.49
2022-08-26T05:47:58.274Z,35.62
2022-08-26T05:50:27.086Z,36.61
2022-08-26T05:52:55.510Z,35.75
2022-08-26T05:55:24.685Z,35.08
2022-08-26T05:57:53.964Z,36.50
2022-08-26T06:00:25.012Z,34.66
2022-08-26T06:02:53.238Z,34.85
2022-08-26T06:05:23.862Z,35.95
2022-08-26T06:08:12.471Z,35.18
2022-08-26T06:10:53.533Z,35.95
2022-08-26T06:13:27.047Z,34.87
2022-08-26T06:15:59.523Z,35.24
2022-08-26T06:18:33.395Z,35.50
2022-08-26T06:21:24.155Z,35.40
2022-08-26T06:24:15.620Z,35.04
2022-08-26T06:26:56.953Z,35.59
2022-08-26T06:29:26.648Z,35.07
2022-08-26T06:31:56.948Z,35.44
2022-08-26T06:34:30.537Z,35.75
2022-08-26T06:37:06.681Z,34.77
2022-08-26T06:39:41.045Z,34.95
2022-08-26T06:42:10.809Z,33.69
2022-08-26T06:44:44.677Z,35.30
2022-08-26T06:47:15.622Z,34.94
2022-08-26T06:50:01.222Z,34.62
2022-08-26T06:52:30.014Z,35.64
2022-08-26T06:55:00.129Z,34.80
2022-08-26T06:57:28.867Z,34.78
2022-08-26T07:00:02.380Z,34.82
2022-08-26T07:02:31.207Z,34.42
2022-08-26T07:05:00.128Z,34.42
2022-08-26T07:07:29.684Z,33.96
2022-08-26T07:09:58.271Z,33.80
2022-08-26T07:12:27.741Z,32.06
2022-08-26T07:14:56.286Z,32.51
2022-08-26T07:17:26.313Z,31.94
2022-08-26T07:19:56.186Z,32.01
2022-08-26T07:22:25.099Z,31.60
2022-08-26T07:24:52.964Z,32.16
2022-08-26T07:27:21.969Z,32.03
2022-08-26T07:29:50.122Z,31.45
2022-08-26T07:32:20.898Z,29.98
2022-08-26T07:34:51.850Z,30.33
2022-08-26T07:37:20.683Z,30.50
2022-08-26T07:39:49.312Z,30.48
2022-08-26T07:42:20.705Z,29.89
2022-08-26T07:44:49.347Z,30.63
2022-08-26T07:47:24.589Z,30.34
2022-08-26T07:49:57.807Z,30.07
2022-08-26T07:52:30.738Z,30.47
2022-08-26T07:55:02.069Z,30.87
2022-08-26T07:57:32.268Z,29.92
2022-08-26T08:00:00.572Z,30.67
2022-08-26T08:02:30.375Z,30.41
2022-08-26T08:05:00.434Z,30.45
2022-08-26T08:07:44.940Z,30.34
2022-08-26T08:10:19.299Z,30.09
2022-08-26T08:12:50.294Z,30.10
2022-08-26T08:15:24.408Z,29.94
2022-08-26T08:17:58.862Z,30.02
2022-08-26T08:20:30.474Z,29.86
2022-08-26T08:22:59.569Z,30.06
2022-08-26T08:25:29.856Z,29.98
2022-08-26T08:27:57.812Z,29.53
2022-08-26T08:30:28.244Z,29.74
2022-08-26T08:32:57.473Z,29.29
2022-08-26T08:35:30.164Z,29.64
2022-08-26T08:38:04.166Z,29.85
2022-08-26T08:40:33.286Z,30.14
2022-08-26T08:43:13.749Z,30.43
2022-08-26T08:45:58.535Z,31.02
2022-08-26T08:48:37.225Z,30.41
2022-08-26T08:51:26.665Z,30.54
2022-08-26T08:53:56.485Z,30.25
2022-08-26T08:56:49.895Z,30.25
2022-08-26T08:59:25.204Z,29.95
2022-08-26T09:02:27.532Z,30.04
2022-08-26T09:05:15.036Z,30.23
2022-08-26T09:08:06.598Z,29.77
2022-08-26T09:10:47.209Z,30.22
2022-08-26T09:13:25.130Z,29.92
2022-08-26T09:16:11.043Z,29.79
2022-08-26T09:19:18.960Z,29.08
2022-08-26T09:21:56.846Z,29.31
2022-08-26T09:24:28.491Z,29.68
2022-08-26T09:27:01.456Z,29.63
2022-08-26T09:29:41.332Z,29.11
2022-08-26T09:32:27.299Z,29.15
2022-08-26T09:35:13.520Z,28.34
2022-08-26T09:40:29.475Z,28.85
2022-08-26T09:43:21.985Z,29.12
2022-08-26T09:45:59.431Z,29.40
2022-08-26T09:48:36.239Z,29.13
2022-08-26T09:51:27.735Z,29.09
2022-08-26T09:53:58.622Z,29.12
2022-08-26T09:56:36.405Z,28.98
2022-08-26T09:59:11.133Z,29.55
2022-08-26T10:01:45.028Z,29.30
2022-08-26T10:04:27.145Z,29.23
2022-08-26T10:07:07.713Z,29.78
2022-08-26T10:09:42.164Z,30.08
2022-08-26T10:12:19.372Z,30.15
2022-08-26T10:15:10.165Z,30.16
2022-08-26T10:17:40.054Z,30.37
2022-08-26T10:20:23.581Z,30.30
2022-08-26T10:23:14.081Z,30.09
2022-08-26T10:26:13.296Z,30.37
2022-08-26T10:29:01.612Z,30.99
2022-08-26T10:31:40.612Z,31.34
2022-08-26T10:34:12.349Z,30.68
2022-08-26T10:37:16.448Z,30.55
2022-08-26T10:40:13.240Z,30.79
2022-08-26T10:43:12.808Z,31.37
2022-08-26T10:45:56.732Z,31.08
2022-08-26T10:49:13.637Z,31.39
2022-08-26T10:52:04.384Z,31.00
2022-08-26T10:54:53.599Z,30.94
2022-08-26T10:57:59.209Z,30.97
2022-08-26T11:01:01.751Z,30.69
2022-08-26T11:04:02.418Z,31.29
2022-08-26T11:06:31.835Z,30.86
2022-08-26T11:09:05.222Z,31.26
2022-08-26T11:11:42.453Z,31.80
2022-08-26T11:14:28.740Z,31.68
2022-08-26T11:17:01.549Z,31.01
2022-08-26T11:20:01.468Z,31.19
2022-08-26T11:22:47.353Z,30.81
2022-08-26T11:25:19.558Z,31.21
2022-08-26T11:27:56.079Z,30.15
2022-08-26T11:30:39.119Z,30.75
2022-08-26T11:33:09.306Z,30.35
2022-08-26T11:35:43.668Z,29.52
2022-08-26T11:38:20.547Z,29.28
2022-08-26T11:41:11.891Z,28.45
2022-08-26T11:43:41.699Z,28.88
2022-08-26T11:46:13.069Z,29.06
2022-08-26T11:48:44.903Z,28.65
2022-08-26T11:51:16.409Z,28.03
2022-08-26T11:53:47.201Z,28.14
2022-08-26T11:56:33.918Z,27.90
2022-08-26T11:59:10.052Z,28.28
2022-08-26T12:01:46.145Z,28.08
2022-08-26T12:04:30.081Z,28.02
2022-08-26T12:07:02.268Z,27.84
2022-08-26T12:09:35.193Z,27.93
2022-08-26T12:12:43.715Z,27.10
2022-08-26T12:15:23.099Z,27.00
2022-08-26T12:17:54.637Z,26.98
2022-08-26T12:20:54.232Z,26.88
2022-08-26T12:23:39.290Z,26.55
2022-08-26T12:26:16.206Z,26.18
2022-08-26T12:28:48.594Z,25.58
2022-08-26T12:31:43.242Z,26.24
2022-08-26T12:34:18.615Z,24.97
2022-08-26T12:39:39.767Z,26.85
2022-08-26T12:42:42.567Z,26.96
2022-08-26T12:45:11.696Z,26.69
2022-08-26T12:47:44.119Z,26.29
2022-08-26T12:50:23.653Z,26.58
2022-08-26T12:53:03.989Z,26.52
2022-08-26T12:55:40.326Z,26.43
2022-08-26T12:58:31.911Z,26.14
2022-08-26T13:01:09.295Z,25.49
2022-08-26T13:03:45.706Z,26.23
2022-08-26T13:06:30.212Z,24.86
2022-08-26T13:09:12.907Z,24.17
2022-08-26T13:11:45.198Z,23.61
2022-08-26T13:14:21.113Z,23.99
2022-08-26T13:16:53.829Z,24.23
2022-08-26T13:19:25.870Z,24.45
2022-08-26T13:21:58.034Z,24.37
2022-08-26T13:24:34.478Z,24.14
2022-08-26T13:27:05.010Z,24.79
2022-08-26T13:29:34.603Z,24.33
2022-08-26T13:32:06.137Z,24.88
2022-08-26T13:34:39.493Z,24.85
2022-08-26T13:37:08.970Z,24.95
2022-08-26T13:39:38.404Z,25.35
2022-08-26T13:42:07.329Z,25.27
2022-08-26T13:44:39.166Z,25.66
2022-08-26T13:47:08.771Z,26.30
2022-08-26T13:49:37.199Z,26.94
2022-08-26T13:52:05.362Z,27.07
2022-08-26T13:54:33.628Z,27.13
2022-08-26T13:57:02.523Z,27.40
2022-08-26T13:59:31.141Z,26.71
2022-08-26T14:02:03.026Z,27.46
2022-08-26T14:04:31.246Z,27.91
2022-08-26T14:07:00.612Z,27.76
2022-08-26T14:09:29.128Z,27.91
2022-08-26T14:12:00.965Z,27.83
2022-08-26T14:14:30.403Z,28.56
2022-08-26T14:17:00.531Z,28.57
2022-08-26T14:19:33.340Z,28.23
2022-08-26T14:22:04.162Z,28.32
2022-08-26T14:24:34.198Z,28.81
2022-08-26T14:27:04.644Z,28.96
2022-08-26T14:29:33.280Z,28.99
2022-08-26T14:32:07.115Z,29.10
2022-08-26T14:34:36.826Z,29.37
2022-08-26T14:37:09.894Z,29.70
2022-08-26T14:39:41.716Z,30.27
2022-08-26T14:42:10.986Z,29.92
2022-08-26T14:44:44.947Z,30.28
2022-08-26T14:47:13.438Z,30.54
2022-08-26T14:49:42.102Z,30.49
2022-08-26T14:52:10.172Z,30.46
2022-08-26T14:54:38.102Z,30.62
2022-08-26T14:57:12.229Z,30.77
2022-08-26T14:59:49.606Z,30.66
2022-08-26T15:02:32.812Z,30.76
2022-08-26T15:05:08.803Z,30.81
2022-08-26T15:07:41.024Z,30.48
2022-08-26T15:10:13.947Z,30.28
2022-08-26T15:12:43.330Z,30.62
2022-08-26T15:15:15.503Z,30.89
2022-08-26T15:17:44.890Z,30.87
2022-08-26T15:20:16.546Z,31.03
2022-08-26T15:22:45.273Z,31.04
2022-08-26T15:25:15.583Z,31.41
2022-08-26T15:27:44.572Z,31.63
2022-08-26T15:30:13.982Z,31.36
2022-08-26T15:32:50.343Z,31.78
2022-08-26T15:35:19.986Z,32.32
2022-08-26T15:40:22.305Z,32.19
2022-08-26T15:43:01.122Z,31.97
2022-08-26T15:45:35.921Z,32.97
2022-08-26T15:48:04.958Z,32.30
2022-08-26T15:50:36.248Z,31.96
2022-08-26T15:53:05.518Z,31.75
2022-08-26T15:55:34.953Z,31.21
2022-08-26T15:58:03.216Z,31.19
2022-08-26T16:00:32.553Z,31.59
2022-08-26T16:03:01.132Z,31.49
2022-08-26T16:05:30.950Z,31.63
2022-08-26T16:07:59.319Z,31.15
2022-08-26T16:10:31.406Z,31.22
2022-08-26T16:13:00.759Z,31.71
2022-08-26T16:15:30.376Z,31.80
2022-08-26T16:18:03.434Z,31.76
2022-08-26T16:20:35.546Z,32.40
2022-08-26T16:23:06.392Z,35.76
2022-08-26T16:25:39.003Z,38.33
2022-08-26T16:28:11.644Z,40.00
2022-08-26T16:30:42.779Z,48.46
2022-08-26T16:33:15.196Z,56.15
2022-08-26T16:35:59.993Z,56.45
2022-08-26T16:38:28.387Z,57.91
2022-08-26T16:43:58.696Z,59.01
2022-08-26T16:49:13.211Z,58.45
2022-08-26T16:51:42.738Z,59.42
2022-08-26T16:54:10.574Z,61.93
2022-08-26T16:56:40.665Z,61.22
2022-08-26T16:59:12.275Z,61.08
2022-08-26T17:01:42.115Z,62.12
2022-08-26T17:04:15.442Z,61.35
2022-08-26T17:06:47.139Z,56.84
2022-08-26T17:09:15.974Z,57.19
2022-08-26T17:11:46.410Z,57.31
2022-08-26T17:14:14.391Z,53.83
2022-08-26T17:16:43.696Z,50.24
2022-08-26T17:19:12.633Z,50.86
2022-08-26T17:21:41.854Z,49.94
2022-08-26T17:24:13.463Z,49.07
2022-08-26T17:26:48.312Z,47.09
2022-08-26T17:29:19.179Z,45.98
2022-08-26T17:31:48.212Z,44.66
2022-08-26T17:34:19.373Z,45.38
2022-08-26T17:36:47.351Z,42.67
2022-08-26T17:39:17.123Z,42.61
2022-08-26T17:41:49.342Z,42.61
2022-08-26T17:44:19.239Z,42.77
2022-08-26T17:46:49.649Z,40.94
2022-08-26T17:49:18.451Z,41.17
2022-08-26T17:51:49.266Z,39.05
2022-08-26T17:54:20.042Z,40.50
2022-08-26T17:56:50.000Z,39.97
2022-08-26T17:59:22.509Z,40.43
2022-08-26T18:01:55.167Z,41.10
2022-08-26T18:04:24.169Z,40.52
2022-08-26T18:06:53.088Z,40.76
2022-08-26T18:09:26.621Z,39.90
2022-08-26T18:11:56.447Z,41.17
2022-08-26T18:14:25.970Z,42.19
2022-08-26T18:16:56.084Z,40.51
2022-08-26T18:19:24.287Z,41.27
2022-08-26T18:21:55.340Z,39.45
2022-08-26T18:24:23.285Z,41.07
2022-08-26T18:26:52.067Z,39.11
2022-08-26T18:29:20.751Z,41.11
2022-08-26T18:31:50.321Z,39.96
2022-08-26T18:34:20.056Z,38.24
2022-08-26T18:36:49.672Z,38.70
2022-08-26T18:39:23.457Z,38.62
2022-08-26T18:41:55.514Z,38.50
2022-08-26T18:44:25.340Z,39.00
2022-08-26T18:46:54.211Z,37.80
2022-08-26T18:49:24.381Z,40.72
2022-08-26T18:51:53.883Z,38.82
2022-08-26T18:54:23.250Z,36.36
2022-08-26T18:56:53.245Z,37.50
2022-08-26T18:59:30.512Z,36.39
2022-08-26T19:02:00.356Z,36.61
2022-08-26T19:04:29.719Z,35.77
2022-08-26T19:06:58.161Z,37.20
2022-08-26T19:09:33.048Z,38.24
2022-08-26T19:12:03.596Z,37.73
2022-08-26T19:14:32.936Z,37.14
2022-08-26T19:17:02.754Z,39.04
2022-08-26T19:19:33.956Z,36.12
2022-08-26T19:22:03.349Z,36.51
2022-08-26T19:24:32.627Z,36.01
2022-08-26T19:27:02.632Z,38.20
2022-08-26T19:29:36.032Z,35.95
2022-08-26T19:32:04.884Z,37.56
2022-08-26T19:34:34.656Z,40.23
2022-08-26T19:37:03.140Z,34.63
2022-08-26T19:39:32.470Z,36.27
2022-08-26T19:42:00.808Z,36.71
2022-08-26T19:44:48.634Z,35.30
2022-08-26T19:47:17.141Z,36.29
2022-08-26T19:49:45.870Z,36.58
2022-08-26T19:52:14.108Z,35.77
2022-08-26T19:54:44.686Z,35.32
2022-08-26T19:57:13.038Z,36.41
2022-08-26T19:59:42.511Z,33.84
2022-08-26T20:02:12.184Z,35.26
2022-08-26T20:04:41.827Z,35.87
2022-08-26T20:07:12.921Z,36.14
2022-08-26T20:09:45.540Z,35.00
2022-08-26T20:12:15.567Z,37.21
2022-08-26T20:14:45.185Z,34.14
2022-08-26T20:17:13.248Z,36.87
2022-08-26T20:20:01.780Z,36.00
2022-08-26T20:22:31.536Z,34.06
2022-08-26T20:25:00.966Z,34.78
2022-08-26T20:27:38.126Z,35.31
2022-08-26T20:30:09.308Z,38.42
2022-08-26T20:32:38.852Z,35.40
2022-08-26T20:35:10.858Z,36.90
2022-08-26T20:37:41.876Z,31.77
2022-08-26T20:40:13.440Z,33.40
2022-08-26T20:42:42.791Z,32.21
2022-08-26T20:45:11.763Z,32.54
2022-08-26T20:47:43.110Z,31.11
2022-08-26T20:50:11.342Z,32.98
2022-08-26T20:52:43.200Z,31.17
2022-08-26T20:55:12.386Z,31.28
2022-08-26T20:57:43.623Z,30.84
2022-08-26T21:00:16.104Z,31.64
2022-08-26T21:02:46.561Z,31.90
2022-08-26T21:05:15.624Z,31.19
2022-08-26T21:07:44.218Z,32.59
2022-08-26T21:10:15.218Z,30.23
2022-08-26T21:12:45.677Z,30.00
2022-08-26T21:15:14.793Z,31.47
2022-08-26T21:17:44.923Z,29.53
2022-08-26T21:20:13.332Z,30.19
2022-08-26T21:22:44.028Z,30.25
2022-08-26T21:25:15.051Z,28.08
2022-08-26T21:27:43.645Z,29.34
2022-08-26T21:30:15.586Z,29.70
2022-08-26T21:32:44.254Z,28.15
2022-08-26T21:35:13.339Z,29.63
2022-08-26T21:37:41.558Z,27.99
2022-08-26T21:40:11.176Z,27.47
2022-08-26T21:42:40.083Z,28.28
2022-08-26T21:45:08.508Z,28.24
2022-08-26T21:47:37.685Z,27.55
2022-08-26T21:50:07.187Z,28.55
2022-08-26T21:52:39.276Z,28.34
2022-08-26T21:55:08.934Z,28.91
2022-08-26T21:57:38.229Z,29.06
2022-08-26T22:00:10.393Z,28.69
2022-08-26T22:02:38.197Z,28.59
2022-08-26T22:05:06.384Z,28.31
2022-08-26T22:07:36.097Z,27.97
2022-08-26T22:10:04.883Z,29.04
2022-08-26T22:12:36.392Z,28.75
2022-08-26T22:15:06.694Z,28.35
2022-08-26T22:17:35.493Z,29.16
2022-08-26T22:20:07.510Z,28.17
2022-08-26T22:22:46.297Z,28.24
2022-08-26T22:25:14.291Z,28.53
2022-08-26T22:27:43.492Z,29.37
2022-08-26T22:30:13.123Z,28.88
2022-08-26T22:32:41.271Z,28.83
2022-08-26T22:35:29.113Z,29.46
2022-08-26T22:37:59.831Z,28.83
2022-08-26T22:40:29.110Z,28.72
2022-08-26T22:42:58.079Z,28.58
2022-08-26T22:45:31.681Z,29.55
2022-08-26T22:48:05.231Z,27.91
2022-08-26T22:50:34.999Z,28.58
2022-08-26T22:53:03.293Z,28.51
2022-08-26T22:55:32.091Z,28.16
2022-08-26T22:58:05.212Z,29.35
2022-08-26T23:00:34.579Z,28.88
2022-08-26T23:03:04.680Z,28.76
2022-08-26T23:05:33.268Z,28.42
2022-08-26T23:08:03.283Z,27.53
2022-08-26T23:10:32.862Z,28.43
2022-08-26T23:13:08.363Z,29.56
2022-08-26T23:15:39.823Z,28.44
2022-08-26T23:18:10.620Z,27.38
2022-08-26T23:20:39.854Z,28.11
2022-08-26T23:23:08.879Z,29.89
2022-08-26T23:25:37.205Z,28.20
2022-08-26T23:28:05.987Z,29.45
2022-08-26T23:30:35.271Z,28.79
2022-08-26T23:33:05.848Z,28.75
2022-08-26T23:35:34.215Z,28.64
2022-08-26T23:38:04.576Z,28.92
2022-08-26T23:40:35.368Z,28.19
2022-08-26T23:43:07.788Z,28.39
2022-08-26T23:45:36.433Z,28.57
2022-08-26T23:48:06.302Z,28.50
2022-08-26T23:50:57.325Z,29.32
2022-08-26T23:53:25.293Z,28.88
2022-08-26T23:55:54.509Z,28.94
2022-08-26T23:58:23.237Z,27.66
